Terminal Aerodrome Forecast
Issued by NWS

Home | Current Version | Previous Version | Text Only | Print | Product List | Glossary On
Versions: 1 2 3 4 5 6 7 8 9 10 11 12 13 14 15 16 17 18
000
FTUS43 KBIS 271139
TAFMOT
TAF
KMOT 271139Z 2712/2812 16007KT P6SM FEW070 BKN110
     FM280100 14007KT P6SM VCTS FEW090CB SCT200
     FM280600 16006KT P6SM SCT090 BKN200=

USA.gov is the U.S. government's official web portal to all federal, state and local government web resources and services.